FranceFixed distance
Luchon Aneto Trail - L'Ultra Lat
5–6 Jul2025
Distance
85km
Finishers
247220 men27 women
Winning time
9:42:00h
Median pace
5.48km/h
Pace distribution
247 finishers · 4.35–8.76 km/h · mean 5.62
Every finisher ran the same 85 km course, so these paces are directly comparable.
Histogram of finisher pace. 247 finishers ranged from 4.35 to 8.76 kilometres per hour, with a mean of 5.62 and a median of 5.48. The busiest band is 5.0 to 5.5 kilometres per hour, with 68 finishers.
Results
Ranks 51–100 of 247
| Rank | Runner | Time | Pace | Cat. | Placing |
|---|---|---|---|---|---|
| 51 | *Anglet | 13:42:10h | 6.20 | — | 47th M |
| 52 | *Bressuire | 13:43:49h | 6.19 | M40 | 48th M · 11th M40 |
| 53 | *Paris | 13:44:13h | 6.19 | M23 | 49th M · 17th M23 |
| 54 | Toac Triathlon | 13:44:43h | 6.18 | — | 50th M |
| 55 | Team Mendez | 13:45:14h | 6.18 | M40 | 51st M · 12th M40 |
| 56 | Courir SUR Brest | 13:46:08h | 6.17 | M23 | 52nd M · 18th M23 |
| 57 | RLV (Running Loisir Vi... | 13:51:10h | 6.14 | M40 | 53rd M · 13th M40 |
| 58 | *Sanguinet | 13:52:33h | 6.13 | M40 | 54th M · 14th M40 |
| 59 | *Ramonville-Saint-Agne | 13:56:44h | 6.09 | M40 | 55th M · 15th M40 |
| 60 | Noste Run | 13:57:12h | 6.09 | M50 | 56th M · 1st M50 |
| 61 | *Bassussarry | 14:01:10h | 6.06 | M23 | 57th M · 19th M23 |
| 62 | *Toulouse | 14:01:14h | 6.06 | M23 | 58th M · 20th M23 |
| 63 | Montardon D'Achille | 14:02:36h | 6.05 | W50 | 5th F · 1st W50 |
| 64 | *Vertou | 14:02:48h | 6.05 | M45 | 59th M · 6th M45 |
| 65 | *Toulouse | 14:03:02h | 6.05 | M40 | 60th M · 16th M40 |
| 66 | *Bayonne | 14:03:30h | 6.05 | M23 | 61st M · 21st M23 |
| 67 | *Toulouse | 14:03:32h | 6.05 | M35 | 62nd M · 14th M35 |
| 68 | Team Trail Cholet | 14:05:08h | 6.04 | M45 | 63rd M · 7th M45 |
| 69 | les Barjots des Cotos | 14:11:54h | 5.99 | M23 | 64th M · 22nd M23 |
| 70 | *Thuir | 14:15:09h | 5.96 | M35 | 65th M · 15th M35 |
| 71 | Outdoor Club Herblinois | 14:19:37h | 5.93 | M40 | 66th M · 17th M40 |
| 72 | les Gars Lactiques | 14:21:44h | 5.92 | M55 | 67th M · 1st M55 |
| 73 | *Tournefeuille | 14:24:48h | 5.90 | M40 | 68th M · 18th M40 |
| 74 | *Toulouse | 14:27:53h | 5.88 | M23 | 69th M · 23rd M23 |
| 75 | *Lagardelle Sur Leze | 14:30:54h | 5.86 | M23 | 70th M · 24th M23 |
| 76 | Traileurs Ferrailleur | 14:33:12h | 5.84 | M45 | 71st M · 8th M45 |
| 77 | ÇA Villenave D Oenon | 14:37:34h | 5.81 | M45 | 72nd M · 9th M45 |
| 78 | Haute-Garonne Montagne | 14:37:53h | 5.81 | — | 73rd M |
| 79 | *Tombeboeuf | 14:38:21h | 5.81 | M23 | 74th M · 25th M23 |
| 80 | Foulées Agen | 14:39:11h | 5.80 | M23 | 75th M · 26th M23 |
| 81 | Portet Athletic Club (... | 14:44:18h | 5.77 | M23 | 76th M · 27th M23 |
| 81 | *Varilhes | 14:44:18h | 5.77 | M35 | 76th M · 16th M35 |
| 83 | *Barro | 14:46:25h | 5.75 | M45 | 78th M · 10th M45 |
| 84 | *Lourdes | 14:46:27h | 5.75 | — | 79th M |
| 85 | *Mifaget | 14:47:47h | 5.75 | M23 | 80th M · 28th M23 |
| 86 | ASM PAU | 14:47:55h | 5.74 | M35 | 81st M · 17th M35 |
| 87 | *Larreule | 14:47:57h | 5.74 | M23 | 82nd M · 29th M23 |
| 88 | T3R | 14:50:37h | 5.73 | M40 | 83rd M · 19th M40 |
| 89 | Asptt Grand Perigueux | 14:52:04h | 5.72 | M55 | 84th M · 2nd M55 |
| 90 | Gfa74 | 14:52:05h | 5.72 | M35 | 85th M · 18th M35 |
| 91 | *Pau | 14:52:44h | 5.71 | M23 | 86th M · 30th M23 |
| 92 | *Assat | 14:52:45h | 5.71 | M23 | 87th M · 31st M23 |
| 93 | AB Trail | 14:53:04h | 5.71 | M35 | 88th M · 19th M35 |
| 94 | *Toulouse | 14:54:32h | 5.70 | M23 | 89th M · 32nd M23 |
| 95 | *Vitré | 14:56:13h | 5.69 | M35 | 90th M · 20th M35 |
| 96 | *Ciboure | 14:56:17h | 5.69 | M40 | 91st M · 20th M40 |
| 97 | *Toulouse | 14:57:19h | 5.68 | M23 | 92nd M · 33rd M23 |
| 98 | CA Villenave D'Ornon | 14:58:52h | 5.67 | M60 | 93rd M · 2nd M60 |
| 99 | *Brive La Gaillarde | 14:59:56h | 5.67 | M35 | 94th M · 21st M35 |
| 100 | *Rodez | 15:00:10h | 5.67 | M23 | 95th M · 34th M23 |
- 51*Anglet47th MTime13:42:10hPace6.20
- 52*Bressuire48th M · 11th M40Time13:43:49hPace6.19Cat.M40
- 53*Paris49th M · 17th M23Time13:44:13hPace6.19Cat.M23
- 54Toac Triathlon50th MTime13:44:43hPace6.18
- 55Team Mendez51st M · 12th M40Time13:45:14hPace6.18Cat.M40
- 56Courir SUR Brest52nd M · 18th M23Time13:46:08hPace6.17Cat.M23
- 57RLV (Running Loisir Vi...53rd M · 13th M40Time13:51:10hPace6.14Cat.M40
- 58*Sanguinet54th M · 14th M40Time13:52:33hPace6.13Cat.M40
- 59*Ramonville-Saint-Agne55th M · 15th M40Time13:56:44hPace6.09Cat.M40
- 60Noste Run56th M · 1st M50Time13:57:12hPace6.09Cat.M50
- 61*Bassussarry57th M · 19th M23Time14:01:10hPace6.06Cat.M23
- 62*Toulouse58th M · 20th M23Time14:01:14hPace6.06Cat.M23
- 63Montardon D'Achille5th F · 1st W50Time14:02:36hPace6.05Cat.W50
- 64*Vertou59th M · 6th M45Time14:02:48hPace6.05Cat.M45
- 65*Toulouse60th M · 16th M40Time14:03:02hPace6.05Cat.M40
- 66*Bayonne61st M · 21st M23Time14:03:30hPace6.05Cat.M23
- 67*Toulouse62nd M · 14th M35Time14:03:32hPace6.05Cat.M35
- 68Team Trail Cholet63rd M · 7th M45Time14:05:08hPace6.04Cat.M45
- 69les Barjots des Cotos64th M · 22nd M23Time14:11:54hPace5.99Cat.M23
- 70*Thuir65th M · 15th M35Time14:15:09hPace5.96Cat.M35
- 71Outdoor Club Herblinois66th M · 17th M40Time14:19:37hPace5.93Cat.M40
- 72les Gars Lactiques67th M · 1st M55Time14:21:44hPace5.92Cat.M55
- 73*Tournefeuille68th M · 18th M40Time14:24:48hPace5.90Cat.M40
- 74*Toulouse69th M · 23rd M23Time14:27:53hPace5.88Cat.M23
- 75*Lagardelle Sur Leze70th M · 24th M23Time14:30:54hPace5.86Cat.M23
- 76Traileurs Ferrailleur71st M · 8th M45Time14:33:12hPace5.84Cat.M45
- 77ÇA Villenave D Oenon72nd M · 9th M45Time14:37:34hPace5.81Cat.M45
- 78Haute-Garonne Montagne73rd MTime14:37:53hPace5.81
- 79*Tombeboeuf74th M · 25th M23Time14:38:21hPace5.81Cat.M23
- 80Foulées Agen75th M · 26th M23Time14:39:11hPace5.80Cat.M23
- 81Portet Athletic Club (...76th M · 27th M23Time14:44:18hPace5.77Cat.M23
- 81*Varilhes76th M · 16th M35Time14:44:18hPace5.77Cat.M35
- 83*Barro78th M · 10th M45Time14:46:25hPace5.75Cat.M45
- 84*Lourdes79th MTime14:46:27hPace5.75
- 85*Mifaget80th M · 28th M23Time14:47:47hPace5.75Cat.M23
- 86ASM PAU81st M · 17th M35Time14:47:55hPace5.74Cat.M35
- 87*Larreule82nd M · 29th M23Time14:47:57hPace5.74Cat.M23
- 88T3R83rd M · 19th M40Time14:50:37hPace5.73Cat.M40
- 89Asptt Grand Perigueux84th M · 2nd M55Time14:52:04hPace5.72Cat.M55
- 90Gfa7485th M · 18th M35Time14:52:05hPace5.72Cat.M35
- 91*Pau86th M · 30th M23Time14:52:44hPace5.71Cat.M23
- 92*Assat87th M · 31st M23Time14:52:45hPace5.71Cat.M23
- 93AB Trail88th M · 19th M35Time14:53:04hPace5.71Cat.M35
- 94*Toulouse89th M · 32nd M23Time14:54:32hPace5.70Cat.M23
- 95*Vitré90th M · 20th M35Time14:56:13hPace5.69Cat.M35
- 96*Ciboure91st M · 20th M40Time14:56:17hPace5.69Cat.M40
- 97*Toulouse92nd M · 33rd M23Time14:57:19hPace5.68Cat.M23
- 98CA Villenave D'Ornon93rd M · 2nd M60Time14:58:52hPace5.67Cat.M60
- 99*Brive La Gaillarde94th M · 21st M35Time14:59:56hPace5.67Cat.M35
- 100*Rodez95th M · 34th M23Time15:00:10hPace5.67Cat.M23
Showing ranks 51–100 of 247